sensor_id;sensor_type;location;lat;lon;timestamp;temperature;humidity
7292;DHT22;3687;47.648;8.204;2022-07-24T00:00:15;27.80;75.30
7292;DHT22;3687;47.648;8.204;2022-07-24T00:02:41;27.80;75.30
7292;DHT22;3687;47.648;8.204;2022-07-24T00:05:07;27.80;75.30
7292;DHT22;3687;47.648;8.204;2022-07-24T00:07:33;27.80;75.30
7292;DHT22;3687;47.648;8.204;2022-07-24T00:10:00;27.80;75.30
7292;DHT22;3687;47.648;8.204;2022-07-24T00:12:26;27.80;75.30
7292;DHT22;3687;47.648;8.204;2022-07-24T00:14:52;27.80;75.30
7292;DHT22;3687;47.648;8.204;2022-07-24T00:17:18;27.80;75.20
7292;DHT22;3687;47.648;8.204;2022-07-24T00:19:43;27.70;75.10
7292;DHT22;3687;47.648;8.204;2022-07-24T00:22:09;27.70;75.10
7292;DHT22;3687;47.648;8.204;2022-07-24T00:24:34;27.70;75.10
7292;DHT22;3687;47.648;8.204;2022-07-24T00:27:00;27.70;75.10
7292;DHT22;3687;47.648;8.204;2022-07-24T00:29:27;27.70;75.10
7292;DHT22;3687;47.648;8.204;2022-07-24T00:31:52;27.70;75.10
7292;DHT22;3687;47.648;8.204;2022-07-24T00:34:18;27.70;75.10
7292;DHT22;3687;47.648;8.204;2022-07-24T00:36:43;27.70;75.10
7292;DHT22;3687;47.648;8.204;2022-07-24T00:39:09;27.70;75.10
7292;DHT22;3687;47.648;8.204;2022-07-24T00:41:35;27.70;75.10
7292;DHT22;3687;47.648;8.204;2022-07-24T00:44:11;27.70;75.10
7292;DHT22;3687;47.648;8.204;2022-07-24T00:46:39;27.60;75.10
7292;DHT22;3687;47.648;8.204;2022-07-24T00:49:07;27.60;75.00
7292;DHT22;3687;47.648;8.204;2022-07-24T00:51:33;27.60;75.00
7292;DHT22;3687;47.648;8.204;2022-07-24T00:54:04;27.60;75.00
7292;DHT22;3687;47.648;8.204;2022-07-24T00:56:30;27.60;75.00
7292;DHT22;3687;47.648;8.204;2022-07-24T00:58:56;27.60;75.00
7292;DHT22;3687;47.648;8.204;2022-07-24T01:01:22;27.60;75.00
7292;DHT22;3687;47.648;8.204;2022-07-24T01:03:48;27.60;75.10
7292;DHT22;3687;47.648;8.204;2022-07-24T01:06:14;27.60;75.10
7292;DHT22;3687;47.648;8.204;2022-07-24T01:08:40;27.60;75.10
7292;DHT22;3687;47.648;8.204;2022-07-24T01:11:08;27.60;75.10
7292;DHT22;3687;47.648;8.204;2022-07-24T01:13:34;27.60;75.10
7292;DHT22;3687;47.648;8.204;2022-07-24T01:16:01;27.60;75.10
7292;DHT22;3687;47.648;8.204;2022-07-24T01:18:26;27.60;75.20
7292;DHT22;3687;47.648;8.204;2022-07-24T01:20:52;27.50;75.10
7292;DHT22;3687;47.648;8.204;2022-07-24T01:23:17;27.50;75.20
7292;DHT22;3687;47.648;8.204;2022-07-24T01:25:43;27.50;75.20
7292;DHT22;3687;47.648;8.204;2022-07-24T01:28:09;27.50;75.20
7292;DHT22;3687;47.648;8.204;2022-07-24T01:30:34;27.50;75.30
7292;DHT22;3687;47.648;8.204;2022-07-24T01:33:00;27.50;75.30
7292;DHT22;3687;47.648;8.204;2022-07-24T01:35:26;27.50;75.30
7292;DHT22;3687;47.648;8.204;2022-07-24T01:37:52;27.50;75.30
7292;DHT22;3687;47.648;8.204;2022-07-24T01:40:18;27.50;75.30
7292;DHT22;3687;47.648;8.204;2022-07-24T01:42:44;27.50;75.30
7292;DHT22;3687;47.648;8.204;2022-07-24T01:45:09;27.50;75.20
7292;DHT22;3687;47.648;8.204;2022-07-24T01:47:35;27.50;75.20
7292;DHT22;3687;47.648;8.204;2022-07-24T01:50:01;27.50;75.20
7292;DHT22;3687;47.648;8.204;2022-07-24T01:52:26;27.40;75.00
7292;DHT22;3687;47.648;8.204;2022-07-24T01:54:52;27.40;75.00
7292;DHT22;3687;47.648;8.204;2022-07-24T01:57:18;27.40;74.90
7292;DHT22;3687;47.648;8.204;2022-07-24T01:59:44;27.40;74.90
7292;DHT22;3687;47.648;8.204;2022-07-24T02:02:10;27.40;74.90
7292;DHT22;3687;47.648;8.204;2022-07-24T02:04:35;27.40;74.90
7292;DHT22;3687;47.648;8.204;2022-07-24T02:07:01;27.40;75.50
7292;DHT22;3687;47.648;8.204;2022-07-24T02:09:27;27.40;74.80
7292;DHT22;3687;47.648;8.204;2022-07-24T02:11:52;27.40;74.80
7292;DHT22;3687;47.648;8.204;2022-07-24T02:14:18;27.30;74.70
7292;DHT22;3687;47.648;8.204;2022-07-24T02:16:44;27.40;74.80
7292;DHT22;3687;47.648;8.204;2022-07-24T02:19:10;27.30;74.70
7292;DHT22;3687;47.648;8.204;2022-07-24T02:21:35;27.40;74.70
7292;DHT22;3687;47.648;8.204;2022-07-24T02:24:01;27.30;74.60
7292;DHT22;3687;47.648;8.204;2022-07-24T02:26:27;27.30;74.60
7292;DHT22;3687;47.648;8.204;2022-07-24T02:28:52;27.30;74.60
7292;DHT22;3687;47.648;8.204;2022-07-24T02:31:18;27.30;74.60
7292;DHT22;3687;47.648;8.204;2022-07-24T02:33:44;27.30;74.60
7292;DHT22;3687;47.648;8.204;2022-07-24T02:36:09;27.30;74.60
7292;DHT22;3687;47.648;8.204;2022-07-24T02:38:35;27.30;74.60
7292;DHT22;3687;47.648;8.204;2022-07-24T02:41:01;27.30;74.60
7292;DHT22;3687;47.648;8.204;2022-07-24T02:43:26;27.30;74.60
7292;DHT22;3687;47.648;8.204;2022-07-24T02:45:52;27.30;74.60
7292;DHT22;3687;47.648;8.204;2022-07-24T02:48:17;27.30;74.60
7292;DHT22;3687;47.648;8.204;2022-07-24T02:50:43;27.20;74.50
7292;DHT22;3687;47.648;8.204;2022-07-24T02:53:09;27.20;74.50
7292;DHT22;3687;47.648;8.204;2022-07-24T02:55:34;27.20;74.60
7292;DHT22;3687;47.648;8.204;2022-07-24T02:58:00;27.20;74.60
7292;DHT22;3687;47.648;8.204;2022-07-24T03:00:26;27.20;74.60
7292;DHT22;3687;47.648;8.204;2022-07-24T03:02:52;27.20;74.60
7292;DHT22;3687;47.648;8.204;2022-07-24T03:05:17;27.20;74.50
7292;DHT22;3687;47.648;8.204;2022-07-24T03:07:43;27.20;74.60
7292;DHT22;3687;47.648;8.204;2022-07-24T03:10:11;27.20;74.50
7292;DHT22;3687;47.648;8.204;2022-07-24T03:12:37;27.10;74.50
7292;DHT22;3687;47.648;8.204;2022-07-24T03:15:03;27.10;74.40
7292;DHT22;3687;47.648;8.204;2022-07-24T03:17:28;27.10;74.40
7292;DHT22;3687;47.648;8.204;2022-07-24T03:19:54;27.10;74.30
7292;DHT22;3687;47.648;8.204;2022-07-24T03:22:20;27.10;74.30
7292;DHT22;3687;47.648;8.204;2022-07-24T03:24:46;27.10;74.30
7292;DHT22;3687;47.648;8.204;2022-07-24T03:27:11;27.10;74.30
7292;DHT22;3687;47.648;8.204;2022-07-24T03:29:37;27.10;74.30
7292;DHT22;3687;47.648;8.204;2022-07-24T03:32:03;27.10;74.30
7292;DHT22;3687;47.648;8.204;2022-07-24T03:34:29;27.10;74.20
7292;DHT22;3687;47.648;8.204;2022-07-24T03:36:54;27.10;74.20
7292;DHT22;3687;47.648;8.204;2022-07-24T03:39:20;27.10;74.20
7292;DHT22;3687;47.648;8.204;2022-07-24T03:41:46;27.10;74.20
7292;DHT22;3687;47.648;8.204;2022-07-24T03:44:11;27.00;74.10
7292;DHT22;3687;47.648;8.204;2022-07-24T03:46:37;27.00;74.10
7292;DHT22;3687;47.648;8.204;2022-07-24T03:49:02;27.00;74.10
7292;DHT22;3687;47.648;8.204;2022-07-24T03:51:28;27.00;74.10
7292;DHT22;3687;47.648;8.204;2022-07-24T03:53:54;27.00;74.10
7292;DHT22;3687;47.648;8.204;2022-07-24T03:56:19;27.00;74.20
7292;DHT22;3687;47.648;8.204;2022-07-24T03:58:45;27.00;74.20
7292;DHT22;3687;47.648;8.204;2022-07-24T04:01:11;27.00;74.20
7292;DHT22;3687;47.648;8.204;2022-07-24T04:03:37;27.00;74.30
7292;DHT22;3687;47.648;8.204;2022-07-24T04:06:03;27.00;74.30
7292;DHT22;3687;47.648;8.204;2022-07-24T04:08:30;26.90;74.30
7292;DHT22;3687;47.648;8.204;2022-07-24T04:10:56;26.90;74.40
7292;DHT22;3687;47.648;8.204;2022-07-24T04:13:29;26.90;74.40
7292;DHT22;3687;47.648;8.204;2022-07-24T04:15:56;26.90;74.50
7292;DHT22;3687;47.648;8.204;2022-07-24T04:18:21;26.90;74.60
7292;DHT22;3687;47.648;8.204;2022-07-24T04:20:47;26.90;74.50
7292;DHT22;3687;47.648;8.204;2022-07-24T04:23:13;26.90;74.60
7292;DHT22;3687;47.648;8.204;2022-07-24T04:25:39;26.90;74.60
7292;DHT22;3687;47.648;8.204;2022-07-24T04:28:04;26.90;74.60
7292;DHT22;3687;47.648;8.204;2022-07-24T04:30:30;26.90;74.60
7292;DHT22;3687;47.648;8.204;2022-07-24T04:33:11;26.90;74.60
7292;DHT22;3687;47.648;8.204;2022-07-24T04:35:37;26.80;74.60
7292;DHT22;3687;47.648;8.204;2022-07-24T04:38:02;26.80;74.60
7292;DHT22;3687;47.648;8.204;2022-07-24T04:40:28;26.80;74.70
7292;DHT22;3687;47.648;8.204;2022-07-24T04:42:53;26.80;74.70
7292;DHT22;3687;47.648;8.204;2022-07-24T04:45:19;26.80;74.70
7292;DHT22;3687;47.648;8.204;2022-07-24T04:47:45;26.80;74.70
7292;DHT22;3687;47.648;8.204;2022-07-24T04:50:11;26.80;74.90
7292;DHT22;3687;47.648;8.204;2022-07-24T04:52:36;26.80;74.70
7292;DHT22;3687;47.648;8.204;2022-07-24T04:55:02;26.80;74.70
7292;DHT22;3687;47.648;8.204;2022-07-24T04:57:28;26.80;74.70
7292;DHT22;3687;47.648;8.204;2022-07-24T04:59:53;26.80;74.80
7292;DHT22;3687;47.648;8.204;2022-07-24T05:02:19;26.70;74.70
7292;DHT22;3687;47.648;8.204;2022-07-24T05:04:45;26.80;74.80
7292;DHT22;3687;47.648;8.204;2022-07-24T05:07:10;26.70;74.80
7292;DHT22;3687;47.648;8.204;2022-07-24T05:09:36;26.80;74.90
7292;DHT22;3687;47.648;8.204;2022-07-24T05:12:02;26.70;74.80
7292;DHT22;3687;47.648;8.204;2022-07-24T05:14:28;26.70;74.90
7292;DHT22;3687;47.648;8.204;2022-07-24T05:16:53;26.70;74.90
7292;DHT22;3687;47.648;8.204;2022-07-24T05:19:19;26.70;75.00
7292;DHT22;3687;47.648;8.204;2022-07-24T05:21:45;26.70;75.00
7292;DHT22;3687;47.648;8.204;2022-07-24T05:24:10;26.70;75.00
7292;DHT22;3687;47.648;8.204;2022-07-24T05:26:36;26.70;75.00
7292;DHT22;3687;47.648;8.204;2022-07-24T05:29:03;26.70;75.00
7292;DHT22;3687;47.648;8.204;2022-07-24T05:31:29;26.70;75.00
7292;DHT22;3687;47.648;8.204;2022-07-24T05:33:54;26.70;75.00
7292;DHT22;3687;47.648;8.204;2022-07-24T05:36:20;26.70;75.00
7292;DHT22;3687;47.648;8.204;2022-07-24T05:38:46;26.70;75.00
7292;DHT22;3687;47.648;8.204;2022-07-24T05:41:12;26.70;75.00
7292;DHT22;3687;47.648;8.204;2022-07-24T05:43:38;26.70;75.00
7292;DHT22;3687;47.648;8.204;2022-07-24T05:46:04;26.70;75.00
7292;DHT22;3687;47.648;8.204;2022-07-24T05:48:30;26.70;75.10
7292;DHT22;3687;47.648;8.204;2022-07-24T05:50:56;26.70;75.10
7292;DHT22;3687;47.648;8.204;2022-07-24T05:53:22;26.70;75.10
7292;DHT22;3687;47.648;8.204;2022-07-24T05:55:49;26.70;75.20
7292;DHT22;3687;47.648;8.204;2022-07-24T05:58:15;26.70;75.20
7292;DHT22;3687;47.648;8.204;2022-07-24T06:00:49;26.70;75.20
7292;DHT22;3687;47.648;8.204;2022-07-24T06:03:15;26.70;75.20
7292;DHT22;3687;47.648;8.204;2022-07-24T06:05:41;26.70;75.10
7292;DHT22;3687;47.648;8.204;2022-07-24T06:08:06;26.70;75.10
7292;DHT22;3687;47.648;8.204;2022-07-24T06:10:32;26.70;75.10
7292;DHT22;3687;47.648;8.204;2022-07-24T06:12:58;26.70;75.10
7292;DHT22;3687;47.648;8.204;2022-07-24T06:15:24;26.60;75.00
7292;DHT22;3687;47.648;8.204;2022-07-24T06:17:49;26.60;75.00
7292;DHT22;3687;47.648;8.204;2022-07-24T06:20:15;26.60;75.00
7292;DHT22;3687;47.648;8.204;2022-07-24T06:22:45;26.60;75.00
7292;DHT22;3687;47.648;8.204;2022-07-24T06:25:11;26.60;75.10
7292;DHT22;3687;47.648;8.204;2022-07-24T06:27:55;26.60;75.10
7292;DHT22;3687;47.648;8.204;2022-07-24T06:30:23;26.60;75.10
7292;DHT22;3687;47.648;8.204;2022-07-24T06:32:49;26.60;75.10
7292;DHT22;3687;47.648;8.204;2022-07-24T06:35:15;26.60;75.10
7292;DHT22;3687;47.648;8.204;2022-07-24T06:37:41;26.60;75.20
7292;DHT22;3687;47.648;8.204;2022-07-24T06:40:07;26.60;75.20
7292;DHT22;3687;47.648;8.204;2022-07-24T06:42:33;26.60;75.30
7292;DHT22;3687;47.648;8.204;2022-07-24T06:44:59;26.60;75.30
7292;DHT22;3687;47.648;8.204;2022-07-24T06:47:25;26.60;75.40
7292;DHT22;3687;47.648;8.204;2022-07-24T06:49:52;26.60;75.40
7292;DHT22;3687;47.648;8.204;2022-07-24T06:52:18;26.60;75.40
7292;DHT22;3687;47.648;8.204;2022-07-24T06:54:44;26.60;75.50
7292;DHT22;3687;47.648;8.204;2022-07-24T06:57:09;26.60;75.50
7292;DHT22;3687;47.648;8.204;2022-07-24T06:59:35;26.60;76.20
7292;DHT22;3687;47.648;8.204;2022-07-24T07:02:00;26.70;75.60
7292;DHT22;3687;47.648;8.204;2022-07-24T07:04:26;26.60;75.50
7292;DHT22;3687;47.648;8.204;2022-07-24T07:06:52;26.60;75.50
7292;DHT22;3687;47.648;8.204;2022-07-24T07:09:17;26.60;75.70
7292;DHT22;3687;47.648;8.204;2022-07-24T07:11:43;26.60;75.80
7292;DHT22;3687;47.648;8.204;2022-07-24T07:14:08;26.60;75.80
7292;DHT22;3687;47.648;8.204;2022-07-24T07:16:34;26.60;75.80
7292;DHT22;3687;47.648;8.204;2022-07-24T07:18:59;26.60;75.80
7292;DHT22;3687;47.648;8.204;2022-07-24T07:21:25;26.60;75.90
7292;DHT22;3687;47.648;8.204;2022-07-24T07:23:50;26.60;75.90
7292;DHT22;3687;47.648;8.204;2022-07-24T07:26:18;26.60;76.00
7292;DHT22;3687;47.648;8.204;2022-07-24T07:28:44;26.60;76.20
7292;DHT22;3687;47.648;8.204;2022-07-24T07:31:09;26.50;76.40
7292;DHT22;3687;47.648;8.204;2022-07-24T07:33:35;26.50;76.60
7292;DHT22;3687;47.648;8.204;2022-07-24T07:36:00;26.50;76.60
7292;DHT22;3687;47.648;8.204;2022-07-24T07:38:26;26.50;76.60
7292;DHT22;3687;47.648;8.204;2022-07-24T07:40:52;26.50;76.70
7292;DHT22;3687;47.648;8.204;2022-07-24T07:43:17;26.50;76.70
7292;DHT22;3687;47.648;8.204;2022-07-24T07:45:43;26.50;76.80
7292;DHT22;3687;47.648;8.204;2022-07-24T07:48:08;26.50;76.90
7292;DHT22;3687;47.648;8.204;2022-07-24T07:50:34;26.50;76.90
7292;DHT22;3687;47.648;8.204;2022-07-24T07:53:00;26.50;76.90
7292;DHT22;3687;47.648;8.204;2022-07-24T07:55:25;26.50;76.90
7292;DHT22;3687;47.648;8.204;2022-07-24T07:57:51;26.50;76.90
7292;DHT22;3687;47.648;8.204;2022-07-24T08:00:17;26.60;77.00
7292;DHT22;3687;47.648;8.204;2022-07-24T08:02:43;26.50;76.90
7292;DHT22;3687;47.648;8.204;2022-07-24T08:05:10;26.60;76.90
7292;DHT22;3687;47.648;8.204;2022-07-24T08:07:37;26.50;77.00
7292;DHT22;3687;47.648;8.204;2022-07-24T08:10:04;26.50;77.70
7292;DHT22;3687;47.648;8.204;2022-07-24T08:12:30;26.50;77.10
7292;DHT22;3687;47.648;8.204;2022-07-24T08:14:55;26.50;77.20
7292;DHT22;3687;47.648;8.204;2022-07-24T08:17:21;26.50;77.30
7292;DHT22;3687;47.648;8.204;2022-07-24T08:19:47;26.50;77.30
7292;DHT22;3687;47.648;8.204;2022-07-24T08:22:12;26.50;77.40
7292;DHT22;3687;47.648;8.204;2022-07-24T08:24:38;26.50;77.40
7292;DHT22;3687;47.648;8.204;2022-07-24T08:27:05;26.50;77.50
7292;DHT22;3687;47.648;8.204;2022-07-24T08:29:30;26.50;77.40
7292;DHT22;3687;47.648;8.204;2022-07-24T08:31:56;26.50;77.50
7292;DHT22;3687;47.648;8.204;2022-07-24T08:34:21;26.50;77.50
7292;DHT22;3687;47.648;8.204;2022-07-24T08:36:47;26.50;77.60
7292;DHT22;3687;47.648;8.204;2022-07-24T08:39:13;26.50;77.60
7292;DHT22;3687;47.648;8.204;2022-07-24T08:41:40;26.50;77.50
7292;DHT22;3687;47.648;8.204;2022-07-24T08:44:06;26.50;77.60
7292;DHT22;3687;47.648;8.204;2022-07-24T08:46:32;26.50;77.50
7292;DHT22;3687;47.648;8.204;2022-07-24T08:48:58;26.50;77.50
7292;DHT22;3687;47.648;8.204;2022-07-24T08:51:31;26.50;77.60
7292;DHT22;3687;47.648;8.204;2022-07-24T08:53:56;26.60;77.70
7292;DHT22;3687;47.648;8.204;2022-07-24T08:56:22;26.50;77.70
7292;DHT22;3687;47.648;8.204;2022-07-24T08:58:48;26.60;77.90
7292;DHT22;3687;47.648;8.204;2022-07-24T09:01:13;26.60;77.90
7292;DHT22;3687;47.648;8.204;2022-07-24T09:03:44;26.60;78.00
7292;DHT22;3687;47.648;8.204;2022-07-24T09:06:11;26.60;78.00
7292;DHT22;3687;47.648;8.204;2022-07-24T09:08:41;26.60;78.10
7292;DHT22;3687;47.648;8.204;2022-07-24T09:11:07;26.60;78.00
7292;DHT22;3687;47.648;8.204;2022-07-24T09:13:35;26.60;78.00
7292;DHT22;3687;47.648;8.204;2022-07-24T09:16:24;26.60;78.20
7292;DHT22;3687;47.648;8.204;2022-07-24T09:19:01;26.60;78.10
7292;DHT22;3687;47.648;8.204;2022-07-24T09:21:32;26.60;78.00
7292;DHT22;3687;47.648;8.204;2022-07-24T09:23:58;26.70;78.10
7292;DHT22;3687;47.648;8.204;2022-07-24T09:26:48;26.70;78.10
7292;DHT22;3687;47.648;8.204;2022-07-24T09:29:15;26.70;78.20
7292;DHT22;3687;47.648;8.204;2022-07-24T09:34:19;26.70;78.40
7292;DHT22;3687;47.648;8.204;2022-07-24T09:37:01;26.70;79.10
7292;DHT22;3687;47.648;8.204;2022-07-24T09:39:35;26.70;78.30
7292;DHT22;3687;47.648;8.204;2022-07-24T09:42:03;26.70;78.30
7292;DHT22;3687;47.648;8.204;2022-07-24T09:44:30;26.70;78.20
7292;DHT22;3687;47.648;8.204;2022-07-24T09:47:10;26.70;78.00
7292;DHT22;3687;47.648;8.204;2022-07-24T09:49:38;26.70;77.90
7292;DHT22;3687;47.648;8.204;2022-07-24T09:52:18;26.70;77.90
7292;DHT22;3687;47.648;8.204;2022-07-24T09:54:46;26.70;77.90
7292;DHT22;3687;47.648;8.204;2022-07-24T09:57:23;26.70;77.90
7292;DHT22;3687;47.648;8.204;2022-07-24T09:59:56;26.70;77.80
7292;DHT22;3687;47.648;8.204;2022-07-24T10:02:33;26.70;77.70
7292;DHT22;3687;47.648;8.204;2022-07-24T10:05:00;26.70;77.60
7292;DHT22;3687;47.648;8.204;2022-07-24T10:07:28;26.70;77.60
7292;DHT22;3687;47.648;8.204;2022-07-24T10:09:57;26.70;77.50
7292;DHT22;3687;47.648;8.204;2022-07-24T10:12:28;26.70;77.40
7292;DHT22;3687;47.648;8.204;2022-07-24T10:14:59;26.80;77.50
7292;DHT22;3687;47.648;8.204;2022-07-24T10:20:07;26.80;77.40
7292;DHT22;3687;47.648;8.204;2022-07-24T10:23:04;26.80;77.40
7292;DHT22;3687;47.648;8.204;2022-07-24T10:25:44;26.80;77.30
7292;DHT22;3687;47.648;8.204;2022-07-24T10:28:13;26.80;78.00
7292;DHT22;3687;47.648;8.204;2022-07-24T10:30:40;26.80;77.30
7292;DHT22;3687;47.648;8.204;2022-07-24T10:33:06;26.80;77.20
7292;DHT22;3687;47.648;8.204;2022-07-24T10:35:32;26.80;77.20
7292;DHT22;3687;47.648;8.204;2022-07-24T10:40:52;26.80;77.00
7292;DHT22;3687;47.648;8.204;2022-07-24T10:43:21;26.90;77.00
7292;DHT22;3687;47.648;8.204;2022-07-24T10:51:05;26.90;77.20
7292;DHT22;3687;47.648;8.204;2022-07-24T10:59:03;26.90;76.80
7292;DHT22;3687;47.648;8.204;2022-07-24T11:03:59;26.90;77.40
7292;DHT22;3687;47.648;8.204;2022-07-24T11:07:26;27.00;76.80
7292;DHT22;3687;47.648;8.204;2022-07-24T11:09:28;27.00;76.70
7292;DHT22;3687;47.648;8.204;2022-07-24T11:16:49;27.00;76.50
7292;DHT22;3687;47.648;8.204;2022-07-24T11:21:44;27.00;76.30
7292;DHT22;3687;47.648;8.204;2022-07-24T11:26:40;27.00;76.00
7292;DHT22;3687;47.648;8.204;2022-07-24T11:29:25;27.10;75.90
7292;DHT22;3687;47.648;8.204;2022-07-24T11:32:13;27.10;75.70
7292;DHT22;3687;47.648;8.204;2022-07-24T11:34:49;27.10;75.70
7292;DHT22;3687;47.648;8.204;2022-07-24T11:37:15;27.10;75.60
7292;DHT22;3687;47.648;8.204;2022-07-24T11:39:42;27.10;75.40
7292;DHT22;3687;47.648;8.204;2022-07-24T11:42:16;27.10;75.40
7292;DHT22;3687;47.648;8.204;2022-07-24T11:44:47;27.10;75.10
7292;DHT22;3687;47.648;8.204;2022-07-24T11:49:51;27.10;74.90
7292;DHT22;3687;47.648;8.204;2022-07-24T11:52:27;27.10;74.80
7292;DHT22;3687;47.648;8.204;2022-07-24T11:54:58;27.10;74.70
7292;DHT22;3687;47.648;8.204;2022-07-24T11:57:28;27.10;74.50
7292;DHT22;3687;47.648;8.204;2022-07-24T11:59:55;27.20;74.50
7292;DHT22;3687;47.648;8.204;2022-07-24T12:02:23;27.20;74.40
7292;DHT22;3687;47.648;8.204;2022-07-24T12:04:50;27.20;74.20
7292;DHT22;3687;47.648;8.204;2022-07-24T12:07:26;27.20;74.10
7292;DHT22;3687;47.648;8.204;2022-07-24T12:09:55;27.20;73.80
7292;DHT22;3687;47.648;8.204;2022-07-24T12:17:32;27.30;73.70
7292;DHT22;3687;47.648;8.204;2022-07-24T12:20:00;27.30;73.60
7292;DHT22;3687;47.648;8.204;2022-07-24T12:22:28;27.30;73.50
7292;DHT22;3687;47.648;8.204;2022-07-24T12:24:55;27.30;73.40
7292;DHT22;3687;47.648;8.204;2022-07-24T12:27:39;27.30;73.30
7292;DHT22;3687;47.648;8.204;2022-07-24T12:35:18;27.30;73.10
7292;DHT22;3687;47.648;8.204;2022-07-24T12:37:44;27.40;73.20
7292;DHT22;3687;47.648;8.204;2022-07-24T12:40:22;27.40;73.10
7292;DHT22;3687;47.648;8.204;2022-07-24T12:42:56;27.40;72.90
7292;DHT22;3687;47.648;8.204;2022-07-24T12:45:21;27.40;72.90
7292;DHT22;3687;47.648;8.204;2022-07-24T12:50:32;27.50;73.00
7292;DHT22;3687;47.648;8.204;2022-07-24T12:53:06;27.50;72.90
7292;DHT22;3687;47.648;8.204;2022-07-24T12:55:33;27.50;72.80
7292;DHT22;3687;47.648;8.204;2022-07-24T12:58:00;27.50;72.70
7292;DHT22;3687;47.648;8.204;2022-07-24T13:00:26;27.50;72.60
7292;DHT22;3687;47.648;8.204;2022-07-24T13:02:52;27.60;72.70
7292;DHT22;3687;47.648;8.204;2022-07-24T13:05:36;27.60;72.70
7292;DHT22;3687;47.648;8.204;2022-07-24T13:08:02;27.60;72.50
7292;DHT22;3687;47.648;8.204;2022-07-24T13:10:27;27.60;72.50
7292;DHT22;3687;47.648;8.204;2022-07-24T13:12:53;27.60;72.40
7292;DHT22;3687;47.648;8.204;2022-07-24T13:15:18;27.60;72.40
7292;DHT22;3687;47.648;8.204;2022-07-24T13:17:44;27.60;72.30
7292;DHT22;3687;47.648;8.204;2022-07-24T13:20:10;27.60;72.20
7292;DHT22;3687;47.648;8.204;2022-07-24T13:22:36;27.60;72.20
7292;DHT22;3687;47.648;8.204;2022-07-24T13:25:01;27.60;72.20
7292;DHT22;3687;47.648;8.204;2022-07-24T13:27:27;27.70;72.20
7292;DHT22;3687;47.648;8.204;2022-07-24T13:29:53;27.70;72.10
7292;DHT22;3687;47.648;8.204;2022-07-24T13:32:18;27.70;72.10
7292;DHT22;3687;47.648;8.204;2022-07-24T13:34:44;27.70;72.10
7292;DHT22;3687;47.648;8.204;2022-07-24T13:37:09;27.70;72.00
7292;DHT22;3687;47.648;8.204;2022-07-24T13:39:35;27.70;71.90
7292;DHT22;3687;47.648;8.204;2022-07-24T13:42:02;27.80;72.00
7292;DHT22;3687;47.648;8.204;2022-07-24T13:44:28;27.80;71.90
7292;DHT22;3687;47.648;8.204;2022-07-24T13:46:53;27.80;71.90
7292;DHT22;3687;47.648;8.204;2022-07-24T13:49:19;27.80;71.90
7292;DHT22;3687;47.648;8.204;2022-07-24T13:51:45;27.90;71.90
7292;DHT22;3687;47.648;8.204;2022-07-24T13:54:12;27.90;71.80
7292;DHT22;3687;47.648;8.204;2022-07-24T13:56:39;27.90;71.80
7292;DHT22;3687;47.648;8.204;2022-07-24T13:59:04;27.90;71.80
7292;DHT22;3687;47.648;8.204;2022-07-24T14:01:30;27.90;71.70
7292;DHT22;3687;47.648;8.204;2022-07-24T14:03:56;27.90;71.70
7292;DHT22;3687;47.648;8.204;2022-07-24T14:06:21;28.00;71.70
7292;DHT22;3687;47.648;8.204;2022-07-24T14:08:47;28.00;71.70
7292;DHT22;3687;47.648;8.204;2022-07-24T14:11:12;28.00;71.80
7292;DHT22;3687;47.648;8.204;2022-07-24T14:13:38;28.00;71.60
7292;DHT22;3687;47.648;8.204;2022-07-24T14:16:05;28.00;71.60
7292;DHT22;3687;47.648;8.204;2022-07-24T14:18:31;28.00;71.60
7292;DHT22;3687;47.648;8.204;2022-07-24T14:20:56;28.10;71.60
7292;DHT22;3687;47.648;8.204;2022-07-24T14:23:22;28.00;71.50
7292;DHT22;3687;47.648;8.204;2022-07-24T14:25:48;28.10;71.50
7292;DHT22;3687;47.648;8.204;2022-07-24T14:28:14;28.10;71.40
7292;DHT22;3687;47.648;8.204;2022-07-24T14:30:40;28.10;71.40
7292;DHT22;3687;47.648;8.204;2022-07-24T14:33:06;28.20;71.40
7292;DHT22;3687;47.648;8.204;2022-07-24T14:35:31;28.10;71.30
7292;DHT22;3687;47.648;8.204;2022-07-24T14:37:57;28.20;71.30
7292;DHT22;3687;47.648;8.204;2022-07-24T14:40:23;28.20;71.30
7292;DHT22;3687;47.648;8.204;2022-07-24T14:42:49;28.20;71.20
7292;DHT22;3687;47.648;8.204;2022-07-24T14:45:15;28.20;71.10
7292;DHT22;3687;47.648;8.204;2022-07-24T14:47:40;28.30;71.20
7292;DHT22;3687;47.648;8.204;2022-07-24T14:50:07;28.30;71.10
7292;DHT22;3687;47.648;8.204;2022-07-24T14:52:34;28.30;71.00
7292;DHT22;3687;47.648;8.204;2022-07-24T14:55:00;28.30;71.00
7292;DHT22;3687;47.648;8.204;2022-07-24T14:57:25;28.30;71.00
7292;DHT22;3687;47.648;8.204;2022-07-24T14:59:51;28.40;71.00
7292;DHT22;3687;47.648;8.204;2022-07-24T15:02:16;28.40;71.00
7292;DHT22;3687;47.648;8.204;2022-07-24T15:04:42;28.40;70.90
7292;DHT22;3687;47.648;8.204;2022-07-24T15:07:08;28.40;70.90
7292;DHT22;3687;47.648;8.204;2022-07-24T15:09:34;28.40;70.80
7292;DHT22;3687;47.648;8.204;2022-07-24T15:11:59;28.40;70.80
7292;DHT22;3687;47.648;8.204;2022-07-24T15:14:25;28.40;70.70
7292;DHT22;3687;47.648;8.204;2022-07-24T15:16:50;28.50;70.80
7292;DHT22;3687;47.648;8.204;2022-07-24T15:19:16;28.50;70.70
7292;DHT22;3687;47.648;8.204;2022-07-24T15:21:42;28.50;70.60
7292;DHT22;3687;47.648;8.204;2022-07-24T15:24:08;28.50;70.60
7292;DHT22;3687;47.648;8.204;2022-07-24T15:26:34;28.50;70.60
7292;DHT22;3687;47.648;8.204;2022-07-24T15:28:59;28.50;71.20
7292;DHT22;3687;47.648;8.204;2022-07-24T15:31:25;28.50;70.30
7292;DHT22;3687;47.648;8.204;2022-07-24T15:33:51;28.60;70.30
7292;DHT22;3687;47.648;8.204;2022-07-24T15:36:16;28.60;70.30
7292;DHT22;3687;47.648;8.204;2022-07-24T15:38:42;28.60;70.20
7292;DHT22;3687;47.648;8.204;2022-07-24T15:41:08;28.60;70.20
7292;DHT22;3687;47.648;8.204;2022-07-24T15:43:33;28.70;70.20
7292;DHT22;3687;47.648;8.204;2022-07-24T15:45:59;28.60;70.10
7292;DHT22;3687;47.648;8.204;2022-07-24T15:48:25;28.70;70.10
7292;DHT22;3687;47.648;8.204;2022-07-24T15:50:50;28.70;70.10
7292;DHT22;3687;47.648;8.204;2022-07-24T15:53:16;28.70;70.00
7292;DHT22;3687;47.648;8.204;2022-07-24T15:55:42;28.70;69.90
7292;DHT22;3687;47.648;8.204;2022-07-24T15:58:08;28.80;70.00
7292;DHT22;3687;47.648;8.204;2022-07-24T16:00:33;28.80;69.90
7292;DHT22;3687;47.648;8.204;2022-07-24T16:02:59;28.80;69.70
7292;DHT22;3687;47.648;8.204;2022-07-24T16:05:24;28.80;69.70
7292;DHT22;3687;47.648;8.204;2022-07-24T16:07:51;28.80;69.70
7292;DHT22;3687;47.648;8.204;2022-07-24T16:10:17;28.80;69.70
7292;DHT22;3687;47.648;8.204;2022-07-24T16:12:44;28.80;69.60
7292;DHT22;3687;47.648;8.204;2022-07-24T16:15:10;28.80;69.40
7292;DHT22;3687;47.648;8.204;2022-07-24T16:17:38;28.90;69.40
7292;DHT22;3687;47.648;8.204;2022-07-24T16:20:04;28.90;69.30
7292;DHT22;3687;47.648;8.204;2022-07-24T16:22:30;28.90;69.20
7292;DHT22;3687;47.648;8.204;2022-07-24T16:24:56;28.90;69.20
7292;DHT22;3687;47.648;8.204;2022-07-24T16:27:21;28.90;69.10
7292;DHT22;3687;47.648;8.204;2022-07-24T16:29:47;28.90;69.00
7292;DHT22;3687;47.648;8.204;2022-07-24T16:32:12;28.90;68.90
7292;DHT22;3687;47.648;8.204;2022-07-24T16:34:38;28.90;68.80
7292;DHT22;3687;47.648;8.204;2022-07-24T16:37:04;29.00;68.90
7292;DHT22;3687;47.648;8.204;2022-07-24T16:39:29;29.00;68.80
7292;DHT22;3687;47.648;8.204;2022-07-24T16:41:55;29.00;68.70
7292;DHT22;3687;47.648;8.204;2022-07-24T16:44:21;29.00;68.50
7292;DHT22;3687;47.648;8.204;2022-07-24T16:46:46;29.00;68.50